createdAt,value
2024-03-09T00:00:41.976Z,95428.13
2024-03-09T00:03:10.660Z,95426.06
2024-03-09T00:05:41.829Z,95421.84
2024-03-09T00:08:11.166Z,95432.25
2024-03-09T00:10:39.049Z,95440.25
2024-03-09T00:13:06.149Z,95437.38
2024-03-09T00:15:33.659Z,95430.13
2024-03-09T00:18:00.717Z,95432.81
2024-03-09T00:20:35.632Z,95448.78
2024-03-09T00:23:07.407Z,95449.50
2024-03-09T00:25:35.567Z,95451.50
2024-03-09T00:28:02.649Z,95448.44
2024-03-09T00:30:33.104Z,95437.47
2024-03-09T00:33:01.809Z,95429.78
2024-03-09T00:35:30.978Z,95428.09
2024-03-09T00:38:00.321Z,95423.88
2024-03-09T00:40:32.079Z,95419.91
2024-03-09T00:43:07.231Z,95420.28
2024-03-09T00:45:34.710Z,95417.06
2024-03-09T00:48:01.937Z,95409.69
2024-03-09T00:50:29.199Z,95415.44
2024-03-09T00:52:56.701Z,95427.63
2024-03-09T00:55:24.314Z,95431.41
2024-03-09T00:57:52.239Z,95428.16
2024-03-09T01:00:21.209Z,95435.25
2024-03-09T01:02:50.387Z,95422.25
2024-03-09T01:05:20.944Z,95424.69
2024-03-09T01:07:48.134Z,95412.47
2024-03-09T01:10:15.122Z,95416.06
2024-03-09T01:12:42.588Z,95406.72
2024-03-09T01:15:14.697Z,95401.72
2024-03-09T01:17:41.717Z,95398.59
2024-03-09T01:20:10.279Z,95394.84
2024-03-09T01:22:38.646Z,95404.03
2024-03-09T01:25:07.272Z,95407.28
2024-03-09T01:27:34.579Z,95409.97
2024-03-09T01:30:02.193Z,95419.81
2024-03-09T01:32:29.825Z,95410.78
2024-03-09T01:34:57.526Z,95406.63
2024-03-09T01:37:25.142Z,95399.38
2024-03-09T01:39:52.664Z,95396.78
2024-03-09T01:42:20.171Z,95380.22
2024-03-09T01:44:50.615Z,95379.22
2024-03-09T01:47:27.386Z,95374.56
2024-03-09T01:49:58.165Z,95375.44
2024-03-09T01:52:33.384Z,95373.47
2024-03-09T01:55:04.147Z,95376.72
2024-03-09T01:57:31.440Z,95375.91
2024-03-09T01:59:58.381Z,95385.84
2024-03-09T02:02:25.787Z,95394.00
2024-03-09T02:04:52.912Z,95390.88
2024-03-09T02:07:20.272Z,95391.66
2024-03-09T02:09:49.294Z,95388.91
2024-03-09T02:12:18.224Z,95384.06
2024-03-09T02:14:46.061Z,95377.88
2024-03-09T02:17:13.796Z,95370.34
2024-03-09T02:19:42.151Z,95368.47
2024-03-09T02:22:17.366Z,95362.91
2024-03-09T02:24:56.037Z,95351.97
2024-03-09T02:27:26.794Z,95350.28
2024-03-09T02:29:54.188Z,95363.50
2024-03-09T02:32:22.617Z,95354.13
2024-03-09T02:34:50.051Z,95356.00
2024-03-09T02:37:20.856Z,95353.41
2024-03-09T02:39:48.180Z,95359.84
2024-03-09T02:42:15.381Z,95353.03
2024-03-09T02:44:43.133Z,95354.47
2024-03-09T02:47:11.416Z,95350.53
2024-03-09T02:49:40.132Z,95354.84
2024-03-09T02:52:07.590Z,95353.66
2024-03-09T02:54:36.998Z,95349.28
2024-03-09T02:57:07.513Z,95355.53
2024-03-09T02:59:36.254Z,95352.66
2024-03-09T03:02:04.262Z,95347.56
2024-03-09T03:04:31.167Z,95350.34
2024-03-09T03:06:58.510Z,95351.84
2024-03-09T03:09:25.404Z,95349.78
2024-03-09T03:11:53.203Z,95353.03
2024-03-09T03:14:21.427Z,95359.84
2024-03-09T03:16:49.015Z,95356.38
2024-03-09T03:19:15.948Z,95363.38
2024-03-09T03:21:42.845Z,95363.84
2024-03-09T03:24:14.295Z,95360.88
2024-03-09T03:26:41.253Z,95367.16
2024-03-09T03:29:08.999Z,95366.53
2024-03-09T03:31:39.316Z,95362.75
2024-03-09T03:34:06.944Z,95369.53
2024-03-09T03:36:34.300Z,95354.28
2024-03-09T03:39:06.022Z,95358.50
2024-03-09T03:41:32.992Z,95355.63
2024-03-09T03:44:00.013Z,95363.31
2024-03-09T03:46:27.636Z,95368.19
2024-03-09T03:48:54.751Z,95375.72
2024-03-09T03:51:21.619Z,95378.34
2024-03-09T03:53:48.598Z,95367.50
2024-03-09T03:56:15.686Z,95380.97
2024-03-09T03:58:43.608Z,95377.75
2024-03-09T04:01:11.297Z,95377.88
2024-03-09T04:03:39.281Z,95370.72
2024-03-09T04:06:07.880Z,95361.50
2024-03-09T04:08:35.456Z,95356.31
2024-03-09T04:11:04.728Z,95346.91
2024-03-09T04:13:32.557Z,95342.75
2024-03-09T04:16:02.325Z,95339.88
2024-03-09T04:18:34.195Z,95336.94
2024-03-09T04:21:03.666Z,95333.72
2024-03-09T04:23:31.322Z,95337.97
2024-03-09T04:25:58.225Z,95333.13
2024-03-09T04:28:29.143Z,95337.28
2024-03-09T04:30:57.884Z,95325.28
2024-03-09T04:33:25.736Z,95336.13
2024-03-09T04:35:54.114Z,95325.13
2024-03-09T04:38:21.488Z,95318.16
2024-03-09T04:40:50.678Z,95323.66
2024-03-09T04:43:19.156Z,95319.75
2024-03-09T04:45:47.210Z,95312.59
2024-03-09T04:48:17.700Z,95297.38
2024-03-09T04:50:48.713Z,95296.09
2024-03-09T04:53:20.860Z,95307.28
2024-03-09T04:55:53.033Z,95309.38
2024-03-09T04:58:20.731Z,95301.50
2024-03-09T05:00:47.882Z,95313.50
2024-03-09T05:03:15.995Z,95311.91
2024-03-09T05:05:44.300Z,95312.47
2024-03-09T05:08:11.827Z,95309.88
2024-03-09T05:10:39.070Z,95305.94
2024-03-09T05:13:08.050Z,95322.75
2024-03-09T05:15:36.583Z,95322.75
2024-03-09T05:18:09.066Z,95323.88
2024-03-09T05:20:36.841Z,95327.31
2024-03-09T05:23:04.857Z,95315.50
2024-03-09T05:25:32.133Z,95318.59
2024-03-09T05:27:59.275Z,95313.38
2024-03-09T05:30:29.730Z,95307.53
2024-03-09T05:33:07.905Z,95303.06
2024-03-09T05:35:35.603Z,95313.75
2024-03-09T05:38:07.018Z,95319.63
2024-03-09T05:40:36.088Z,95320.97
2024-03-09T05:43:12.822Z,95319.06
2024-03-09T05:45:42.404Z,95316.19
2024-03-09T05:48:10.313Z,95312.78
2024-03-09T05:50:39.069Z,95313.91
2024-03-09T05:53:06.912Z,95317.56
2024-03-09T05:55:34.505Z,95329.19
2024-03-09T05:58:01.560Z,95339.84
2024-03-09T06:00:31.390Z,95336.25
2024-03-09T06:03:03.415Z,95342.00
2024-03-09T06:05:32.091Z,95332.59
2024-03-09T06:08:00.023Z,95342.47
2024-03-09T06:10:27.557Z,95345.81
2024-03-09T06:12:55.648Z,95337.63
2024-03-09T06:15:24.622Z,95338.19
2024-03-09T06:17:55.380Z,95333.56
2024-03-09T06:20:22.911Z,95328.31
2024-03-09T06:22:49.949Z,95332.97
2024-03-09T06:25:25.204Z,95333.19
2024-03-09T06:27:54.162Z,95343.84
2024-03-09T06:30:24.259Z,95339.91
2024-03-09T06:32:52.383Z,95334.84
2024-03-09T06:35:26.815Z,95318.81
2024-03-09T06:38:02.001Z,95325.81
2024-03-09T06:40:34.564Z,95327.06
2024-03-09T06:43:04.697Z,95320.19
2024-03-09T06:45:31.697Z,95327.66
2024-03-09T06:47:59.735Z,95337.47
2024-03-09T06:50:33.356Z,95337.53
2024-03-09T06:53:01.638Z,95336.38
2024-03-09T06:55:30.748Z,95343.41
2024-03-09T06:58:04.296Z,95331.00
2024-03-09T07:00:36.885Z,95321.25
2024-03-09T07:03:06.100Z,95320.13
2024-03-09T07:05:35.313Z,95321.41
2024-03-09T07:08:04.494Z,95328.59
2024-03-09T07:10:33.407Z,95311.38
2024-03-09T07:13:00.761Z,95317.09
2024-03-09T07:15:30.527Z,95319.28
2024-03-09T07:17:57.957Z,95320.53
2024-03-09T07:20:25.310Z,95336.44
2024-03-09T07:23:01.874Z,95341.72
2024-03-09T07:25:29.249Z,95326.06
2024-03-09T07:27:59.109Z,95325.25
2024-03-09T07:30:27.131Z,95327.81
2024-03-09T07:32:57.639Z,95318.50
2024-03-09T07:35:30.738Z,95323.81
2024-03-09T07:38:01.765Z,95316.38
2024-03-09T07:40:37.982Z,95331.44
2024-03-09T07:43:07.048Z,95330.47
2024-03-09T07:45:35.113Z,95330.09
2024-03-09T07:48:04.692Z,95336.47
2024-03-09T07:50:33.981Z,95348.69
2024-03-09T07:53:01.795Z,95338.09
2024-03-09T07:55:30.273Z,95328.59
2024-03-09T07:58:10.109Z,95336.63
2024-03-09T08:00:46.672Z,95339.25
2024-03-09T08:03:14.844Z,95337.34
2024-03-09T08:05:42.794Z,95331.66
2024-03-09T08:08:13.816Z,95329.84
2024-03-09T08:10:48.367Z,95332.69
2024-03-09T08:13:18.021Z,95331.59
2024-03-09T08:15:45.709Z,95329.47
2024-03-09T08:18:12.762Z,95325.63
2024-03-09T08:20:40.044Z,95321.81
2024-03-09T08:23:08.099Z,95326.69
2024-03-09T08:25:35.399Z,95332.22
2024-03-09T08:28:02.375Z,95338.22
2024-03-09T08:30:29.234Z,95330.81
2024-03-09T08:32:59.842Z,95335.28
2024-03-09T08:35:32.603Z,95343.31
2024-03-09T08:37:59.689Z,95330.22
2024-03-09T08:40:32.328Z,95331.50
2024-03-09T08:42:59.986Z,95324.66
2024-03-09T08:45:28.658Z,95317.91
2024-03-09T08:47:55.787Z,95313.44
2024-03-09T08:50:24.937Z,95316.84
2024-03-09T08:52:54.231Z,95316.19
2024-03-09T08:55:21.294Z,95313.56
2024-03-09T08:57:50.724Z,95313.38
2024-03-09T09:00:26.083Z,95314.63
2024-03-09T09:02:57.449Z,95321.16
2024-03-09T09:05:28.060Z,95322.50
2024-03-09T09:07:56.410Z,95315.38
2024-03-09T09:10:23.962Z,95315.03
2024-03-09T09:12:51.115Z,95323.06
2024-03-09T09:15:18.566Z,95312.81
2024-03-09T09:17:46.156Z,95304.44
2024-03-09T09:20:15.015Z,95295.72
2024-03-09T09:22:50.713Z,95291.53
2024-03-09T09:25:27.133Z,95293.56
2024-03-09T09:27:57.779Z,95274.78
2024-03-09T09:30:25.318Z,95288.97
2024-03-09T09:32:52.350Z,95290.69
2024-03-09T09:35:21.721Z,95281.84
2024-03-09T09:37:48.713Z,95279.06
2024-03-09T09:40:16.960Z,95283.34
2024-03-09T09:42:44.908Z,95273.16
2024-03-09T09:45:23.123Z,95264.81
2024-03-09T09:47:50.709Z,95264.31
2024-03-09T09:50:20.929Z,95275.34
2024-03-09T09:52:50.682Z,95263.75
2024-03-09T09:55:20.992Z,95262.75
2024-03-09T09:57:48.341Z,95264.28
2024-03-09T10:00:17.633Z,95260.75
2024-03-09T10:02:46.226Z,95269.09
2024-03-09T10:05:18.351Z,95261.13
2024-03-09T10:08:08.288Z,95266.13
2024-03-09T10:10:44.290Z,95265.03
2024-03-09T10:13:14.374Z,95266.69
2024-03-09T10:15:45.884Z,95266.66
2024-03-09T10:18:14.393Z,95261.34
2024-03-09T10:20:41.495Z,95251.69
2024-03-09T10:23:13.219Z,95250.75
2024-03-09T10:25:41.879Z,95232.78
2024-03-09T10:28:12.929Z,95242.59
2024-03-09T10:30:40.341Z,95245.38
2024-03-09T10:33:17.686Z,95251.91
2024-03-09T10:35:48.046Z,95249.38
2024-03-09T10:38:19.957Z,95245.84
2024-03-09T10:40:47.843Z,95246.44
2024-03-09T10:43:16.033Z,95243.25
2024-03-09T10:45:49.504Z,95244.31
2024-03-09T10:48:16.820Z,95241.16
2024-03-09T10:50:58.024Z,95240.63
2024-03-09T10:53:51.967Z,95234.16
2024-03-09T10:56:24.318Z,95237.31
2024-03-09T10:58:54.625Z,95232.53
2024-03-09T11:01:24.129Z,95231.84
2024-03-09T11:03:51.700Z,95225.72
2024-03-09T11:06:20.772Z,95222.19
2024-03-09T11:08:50.523Z,95228.69
2024-03-09T11:11:23.942Z,95225.13
2024-03-09T11:13:55.202Z,95211.41
2024-03-09T11:16:22.401Z,95210.91
2024-03-09T11:18:57.737Z,95213.94
2024-03-09T11:21:31.579Z,95206.72
2024-03-09T11:24:01.123Z,95193.44
2024-03-09T11:26:28.607Z,95194.66
2024-03-09T11:28:59.683Z,95196.81
2024-03-09T11:31:29.560Z,95184.88
2024-03-09T11:34:23.347Z,95171.75
2024-03-09T11:36:51.991Z,95169.16
2024-03-09T11:39:24.598Z,95163.56
2024-03-09T11:41:52.786Z,95148.81
2024-03-09T11:44:30.836Z,95149.28
2024-03-09T11:46:58.431Z,95149.22
2024-03-09T11:49:28.409Z,95146.91
2024-03-09T11:51:58.189Z,95141.53
2024-03-09T11:54:27.570Z,95138.56
2024-03-09T11:56:56.529Z,95135.34
2024-03-09T11:59:24.360Z,95130.56
2024-03-09T12:02:00.189Z,95121.81
2024-03-09T12:04:34.146Z,95119.38
2024-03-09T12:07:03.589Z,95116.84
2024-03-09T12:09:31.055Z,95117.63
2024-03-09T12:11:58.502Z,95127.56
2024-03-09T12:14:25.632Z,95123.19
2024-03-09T12:16:53.538Z,95110.94
2024-03-09T12:19:21.947Z,95117.81
2024-03-09T12:21:49.559Z,95113.38
2024-03-09T12:24:16.551Z,95117.59
2024-03-09T12:26:44.548Z,95116.75
2024-03-09T12:29:15.408Z,95110.72
2024-03-09T12:31:44.165Z,95103.88
2024-03-09T12:34:15.007Z,95096.03
2024-03-09T12:36:53.219Z,95080.66
2024-03-09T12:39:20.716Z,95080.13
2024-03-09T12:41:53.921Z,95075.53
2024-03-09T12:44:23.064Z,95069.09
2024-03-09T12:46:50.749Z,95067.66
2024-03-09T12:49:20.060Z,95072.44
2024-03-09T12:51:50.729Z,95069.84
2024-03-09T12:54:20.328Z,95066.84
2024-03-09T12:56:49.739Z,95068.34
2024-03-09T12:59:25.010Z,95067.75
2024-03-09T13:01:52.853Z,95062.59
2024-03-09T13:04:26.620Z,95063.00
2024-03-09T13:06:56.893Z,95063.28
2024-03-09T13:09:31.699Z,95058.84
2024-03-09T13:11:59.063Z,95055.47
2024-03-09T13:14:26.285Z,95056.28
2024-03-09T13:16:53.170Z,95059.09
2024-03-09T13:19:21.797Z,95047.75
2024-03-09T13:21:53.137Z,95048.72
2024-03-09T13:24:24.311Z,95048.22
2024-03-09T13:26:52.779Z,95049.59
2024-03-09T13:29:22.364Z,95046.56
2024-03-09T13:31:51.148Z,95036.09
2024-03-09T13:34:18.403Z,95041.50
2024-03-09T13:36:46.652Z,95023.81
2024-03-09T13:39:17.346Z,95021.78
2024-03-09T13:41:46.505Z,95015.47
2024-03-09T13:44:14.543Z,95010.63
2024-03-09T13:46:45.942Z,95008.78
2024-03-09T13:49:16.078Z,95018.34
2024-03-09T13:51:45.017Z,95009.78
2024-03-09T13:54:12.855Z,95016.69
2024-03-09T13:56:40.103Z,95007.88
2024-03-09T13:59:14.664Z,95008.94
2024-03-09T14:01:44.860Z,95002.66
2024-03-09T14:04:14.120Z,95006.22
2024-03-09T14:06:56.416Z,95000.31
2024-03-09T14:09:31.808Z,95009.06
2024-03-09T14:11:59.876Z,95005.44
2024-03-09T14:14:27.330Z,94999.63
2024-03-09T14:16:58.371Z,95011.25
2024-03-09T14:19:25.693Z,95005.09
2024-03-09T14:21:52.963Z,94999.63
2024-03-09T14:24:20.871Z,94995.22
2024-03-09T14:26:48.437Z,95004.81
2024-03-09T14:29:18.256Z,94996.06
2024-03-09T14:31:47.975Z,95000.69
2024-03-09T14:34:15.450Z,94993.41
2024-03-09T14:36:42.941Z,94984.03
2024-03-09T14:39:18.212Z,94991.44
2024-03-09T14:41:45.641Z,94988.66
2024-03-09T14:44:14.405Z,94990.41
2024-03-09T14:46:42.025Z,95000.34
2024-03-09T14:49:10.933Z,94984.25
2024-03-09T14:51:38.692Z,94987.91
2024-03-09T14:54:05.824Z,94973.22
2024-03-09T14:56:32.805Z,94978.16
2024-03-09T14:59:06.032Z,94977.44
2024-03-09T15:01:33.047Z,94973.81
2024-03-09T15:03:59.898Z,94969.69
2024-03-09T15:06:26.800Z,94979.81
2024-03-09T15:08:58.765Z,94967.72
2024-03-09T15:11:25.793Z,94966.13
2024-03-09T15:13:54.875Z,94965.69
2024-03-09T15:16:28.014Z,94958.59
2024-03-09T15:18:55.867Z,94964.63
2024-03-09T15:21:27.431Z,94964.03
2024-03-09T15:23:59.454Z,94956.06
2024-03-09T15:26:30.233Z,94957.56
2024-03-09T15:28:59.091Z,94957.59
2024-03-09T15:31:27.592Z,94961.63
2024-03-09T15:33:55.880Z,94960.97
2024-03-09T15:36:23.729Z,94952.81
2024-03-09T15:38:52.842Z,94956.69
2024-03-09T15:41:20.311Z,94961.53
2024-03-09T15:43:49.616Z,94949.59
2024-03-09T15:46:19.357Z,94954.44
2024-03-09T15:48:47.824Z,94957.50
2024-03-09T15:51:15.118Z,94948.69
2024-03-09T15:53:42.976Z,94950.69
2024-03-09T15:56:12.085Z,94955.41
2024-03-09T15:58:42.049Z,94947.97
2024-03-09T16:01:10.548Z,94947.19
2024-03-09T16:03:39.201Z,94949.28
2024-03-09T16:06:06.330Z,94951.72
2024-03-09T16:08:34.544Z,94943.75
2024-03-09T16:11:04.045Z,94940.53
2024-03-09T16:13:34.449Z,94930.47
2024-03-09T16:16:08.027Z,94918.78
2024-03-09T16:18:35.603Z,94920.94
2024-03-09T16:21:08.293Z,94918.88
2024-03-09T16:23:37.879Z,94913.81
2024-03-09T16:26:06.188Z,94912.59
2024-03-09T16:28:36.956Z,94915.81
2024-03-09T16:31:05.408Z,94904.94
2024-03-09T16:33:33.650Z,94912.34
2024-03-09T16:36:03.390Z,94911.06
2024-03-09T16:38:31.111Z,94914.78
2024-03-09T16:40:58.435Z,94909.47
2024-03-09T16:43:31.481Z,94917.16
2024-03-09T16:46:05.589Z,94910.53
2024-03-09T16:48:35.796Z,94908.19
2024-03-09T16:51:02.978Z,94904.47
2024-03-09T16:53:33.949Z,94910.28
2024-03-09T16:56:03.211Z,94907.91
2024-03-09T16:58:30.576Z,94914.78
2024-03-09T17:00:58.006Z,94917.94
2024-03-09T17:03:24.991Z,94907.25
2024-03-09T17:05:52.241Z,94912.53
2024-03-09T17:08:21.447Z,94911.72
2024-03-09T17:10:52.929Z,94907.22
2024-03-09T17:13:23.633Z,94899.22
2024-03-09T17:15:50.954Z,94907.63
2024-03-09T17:18:22.296Z,94895.41
2024-03-09T17:20:53.810Z,94902.81
2024-03-09T17:23:22.722Z,94905.94
2024-03-09T17:25:50.705Z,94901.66
2024-03-09T17:28:21.517Z,94910.06
2024-03-09T17:30:49.758Z,94892.09
2024-03-09T17:33:17.219Z,94894.16
2024-03-09T17:35:44.241Z,94901.06
2024-03-09T17:38:11.943Z,94890.69
2024-03-09T17:40:39.295Z,94897.03
2024-03-09T17:43:06.315Z,94894.38
2024-03-09T17:45:33.627Z,94897.25
2024-03-09T17:48:00.693Z,94901.47
2024-03-09T17:50:28.753Z,94898.78
2024-03-09T17:52:59.127Z,94900.88
2024-03-09T17:55:29.797Z,94889.41
2024-03-09T17:58:01.366Z,94885.75
2024-03-09T18:00:35.295Z,94891.19
2024-03-09T18:03:03.348Z,94893.78
2024-03-09T18:05:35.480Z,94888.50
2024-03-09T18:08:11.892Z,94888.41
2024-03-09T18:10:43.485Z,94894.25
2024-03-09T18:13:13.006Z,94893.69
2024-03-09T18:15:41.481Z,94876.69
2024-03-09T18:18:14.821Z,94896.75
2024-03-09T18:20:44.424Z,94892.81
2024-03-09T18:23:12.766Z,94886.66
2024-03-09T18:25:40.798Z,94888.06
2024-03-09T18:28:08.795Z,94884.81
2024-03-09T18:30:36.270Z,94876.59
2024-03-09T18:33:07.645Z,94878.75
2024-03-09T18:35:35.374Z,94881.34
2024-03-09T18:38:03.929Z,94874.50
2024-03-09T18:40:31.562Z,94865.53
2024-03-09T18:43:00.086Z,94852.31
2024-03-09T18:45:32.364Z,94860.63
2024-03-09T18:47:59.455Z,94875.34
2024-03-09T18:50:27.337Z,94863.66
2024-03-09T18:52:59.794Z,94863.06
2024-03-09T18:55:28.958Z,94870.75
2024-03-09T18:57:56.445Z,94876.66
2024-03-09T19:00:30.168Z,94865.63
2024-03-09T19:02:57.851Z,94859.63
2024-03-09T19:05:25.278Z,94855.94
2024-03-09T19:07:57.115Z,94858.72
2024-03-09T19:10:25.346Z,94860.78
2024-03-09T19:12:52.808Z,94862.91
2024-03-09T19:15:24.082Z,94856.31
2024-03-09T19:17:52.601Z,94862.06
2024-03-09T19:20:26.077Z,94850.69
2024-03-09T19:22:54.715Z,94854.97
2024-03-09T19:25:22.066Z,94847.47
2024-03-09T19:27:49.289Z,94847.19
2024-03-09T19:30:21.937Z,94845.19
2024-03-09T19:32:51.603Z,94837.31
2024-03-09T19:35:26.936Z,94823.06
2024-03-09T19:37:58.326Z,94809.31
2024-03-09T19:40:27.119Z,94810.38
2024-03-09T19:42:55.495Z,94802.91
2024-03-09T19:45:25.316Z,94825.06
2024-03-09T19:47:53.269Z,94828.81
2024-03-09T19:50:24.214Z,94832.25
2024-03-09T19:52:52.256Z,94819.88
2024-03-09T19:55:20.832Z,94816.94
2024-03-09T19:57:49.912Z,94807.56
2024-03-09T20:00:20.701Z,94815.94
2024-03-09T20:02:57.597Z,94823.13
2024-03-09T20:05:34.421Z,94822.44
2024-03-09T20:08:02.534Z,94832.75
2024-03-09T20:10:36.965Z,94824.97
2024-03-09T20:13:04.325Z,94821.13
2024-03-09T20:15:31.398Z,94815.75
2024-03-09T20:17:59.658Z,94812.06
2024-03-09T20:20:29.324Z,94822.28
2024-03-09T20:22:58.069Z,94822.75
2024-03-09T20:25:27.354Z,94824.22
2024-03-09T20:27:56.068Z,94819.88
2024-03-09T20:30:23.332Z,94809.13
2024-03-09T20:32:52.026Z,94804.59
2024-03-09T20:35:19.879Z,94804.19
2024-03-09T20:37:48.858Z,94813.25
2024-03-09T20:40:17.425Z,94809.19
2024-03-09T20:42:52.956Z,94800.09
2024-03-09T20:45:22.197Z,94803.63
2024-03-09T20:47:50.495Z,94805.66
2024-03-09T20:50:21.825Z,94807.34
2024-03-09T20:52:59.052Z,94802.47
2024-03-09T20:55:28.432Z,94798.94
2024-03-09T20:57:55.896Z,94795.75
2024-03-09T21:00:27.017Z,94799.75
2024-03-09T21:02:54.430Z,94798.91
2024-03-09T21:05:21.747Z,94799.69
2024-03-09T21:07:48.988Z,94783.59
2024-03-09T21:10:16.075Z,94789.47
2024-03-09T21:12:47.310Z,94784.34
2024-03-09T21:15:14.881Z,94786.59
2024-03-09T21:17:42.365Z,94782.94
2024-03-09T21:20:15.296Z,94789.59
2024-03-09T21:22:42.963Z,94783.28
2024-03-09T21:25:14.642Z,94778.63
2024-03-09T21:27:45.552Z,94779.09
2024-03-09T21:30:15.649Z,94773.47
2024-03-09T21:32:46.083Z,94775.09
2024-03-09T21:35:14.047Z,94779.53
2024-03-09T21:37:44.950Z,94767.56
2024-03-09T21:40:13.827Z,94768.84
2024-03-09T21:42:42.185Z,94759.06
2024-03-09T21:45:09.658Z,94763.47
2024-03-09T21:47:36.901Z,94761.44
2024-03-09T21:50:04.575Z,94759.28
2024-03-09T21:52:32.226Z,94758.94
2024-03-09T21:54:59.330Z,94749.69
2024-03-09T21:57:26.387Z,94746.03
2024-03-09T21:59:53.257Z,94746.31
2024-03-09T22:02:20.317Z,94749.06
2024-03-09T22:04:47.250Z,94749.06
2024-03-09T22:07:14.321Z,94749.50
2024-03-09T22:09:42.297Z,94736.94
2024-03-09T22:12:11.993Z,94751.56
2024-03-09T22:14:40.110Z,94737.25
2024-03-09T22:17:07.420Z,94749.47
2024-03-09T22:19:37.980Z,94741.38
2024-03-09T22:22:05.061Z,94748.78
2024-03-09T22:24:32.311Z,94739.31
2024-03-09T22:26:59.208Z,94743.41
2024-03-09T22:29:29.382Z,94736.72
2024-03-09T22:31:57.866Z,94737.53
2024-03-09T22:34:25.182Z,94733.53
2024-03-09T22:36:52.102Z,94736.84
2024-03-09T22:39:19.963Z,94739.31
2024-03-09T22:41:47.636Z,94736.94
2024-03-09T22:44:15.866Z,94735.69
2024-03-09T22:46:42.826Z,94742.41
2024-03-09T22:49:10.287Z,94736.28
2024-03-09T22:51:37.622Z,94733.44
2024-03-09T22:54:04.554Z,94743.00
2024-03-09T22:56:32.511Z,94732.94
2024-03-09T22:58:59.412Z,94726.22
2024-03-09T23:01:26.842Z,94732.84
2024-03-09T23:03:54.371Z,94727.38
2024-03-09T23:06:21.627Z,94722.69
2024-03-09T23:08:49.290Z,94726.00
2024-03-09T23:11:19.090Z,94726.13
2024-03-09T23:13:47.993Z,94723.72
2024-03-09T23:16:15.700Z,94721.00
2024-03-09T23:18:43.396Z,94718.59
2024-03-09T23:21:10.934Z,94719.41
2024-03-09T23:23:37.981Z,94713.81
2024-03-09T23:26:05.256Z,94702.19
2024-03-09T23:28:32.314Z,94711.06
2024-03-09T23:31:00.184Z,94708.81
2024-03-09T23:33:27.362Z,94699.88
2024-03-09T23:35:54.305Z,94698.31
2024-03-09T23:38:23.612Z,94700.78
2024-03-09T23:40:51.168Z,94711.44
2024-03-09T23:43:19.598Z,94715.13
2024-03-09T23:45:47.069Z,94713.97
2024-03-09T23:48:17.178Z,94705.28
2024-03-09T23:50:44.226Z,94698.25
2024-03-09T23:53:13.042Z,94710.69
2024-03-09T23:55:41.404Z,94711.03
2024-03-09T23:58:08.635Z,94705.78
